Time;durP1;ratioP1;P1;durP2;ratioP2;P2;SDS_P1;SDS_P2;PMS_P1;PMS_P2;Temp;Humidity;BMP_temperature;BMP_pressure;BME280_temperature;BME280_humidity;BME280_pressure;Samples;Min_cycle;Max_cycle;Signal;HPM_P1;HPM_P2
2022/09/27 00:00:32;;;;;;;10.05;3.65;;;;;;;10.16;99.58;99608.03;4956307;28;20482;-46
2022/09/27 00:02:58;;;;;;;9.00;2.97;;;;;;;10.16;99.74;99605.38;4969529;28;20027;-48
2022/09/27 00:05:24;;;;;;;8.05;3.00;;;;;;;10.12;99.49;99588.84;4980606;28;20037;-51
2022/09/27 00:07:49;;;;;;;9.38;3.13;;;;;;;10.14;99.43;99600.16;4971970;28;20047;-49
2022/09/27 00:10:15;;;;;;;7.28;2.42;;;;;;;10.16;99.21;99594.75;4970702;28;20100;-46
2022/09/27 00:12:43;;;;;;;8.20;2.75;;;;;;;10.12;98.93;99603.94;4984300;28;20035;-46
2022/09/27 00:15:10;;;;;;;7.78;2.65;;;;;;;10.14;99.29;99608.13;4987516;28;20045;-48
2022/09/27 00:17:37;;;;;;;4.28;2.35;;;;;;;10.12;99.20;99606.59;4988250;28;20045;-47
2022/09/27 00:20:05;;;;;;;4.32;2.20;;;;;;;10.10;99.74;99612.03;4988576;28;20036;-48
2022/09/27 00:22:31;;;;;;;10.43;2.53;;;;;;;10.08;99.10;99621.06;4981833;28;20033;-47
2022/09/27 00:24:57;;;;;;;7.28;2.33;;;;;;;10.12;98.80;99622.53;4976688;28;20053;-46
2022/09/27 00:27:22;;;;;;;5.28;2.20;;;;;;;10.12;99.22;99617.22;4988472;28;20055;-46
2022/09/27 00:29:48;;;;;;;5.57;2.72;;;;;;;10.15;99.10;99619.63;4974213;28;20487;-47
2022/09/27 00:32:13;;;;;;;5.03;2.22;;;;;;;10.18;98.62;99632.66;4986777;28;20095;-48
2022/09/27 00:34:40;;;;;;;5.03;2.30;;;;;;;10.21;98.83;99657.16;4987601;28;20038;-47
2022/09/27 00:37:06;;;;;;;7.53;2.47;;;;;;;10.17;99.09;99637.09;4989417;28;20030;-46
2022/09/27 00:39:34;;;;;;;7.85;2.47;;;;;;;10.17;98.52;99649.56;4976858;28;20029;-48
2022/09/27 00:42:00;;;;;;;8.20;2.35;;;;;;;10.22;98.14;99642.91;4969906;28;20409;-47
2022/09/27 00:44:25;;;;;;;7.25;2.30;;;;;;;10.19;98.34;99642.31;4982449;28;20034;-48
2022/09/27 00:47:02;;;;;;;6.25;2.30;;;;;;;10.13;97.67;99642.81;4974789;28;20080;-46
2022/09/27 00:49:34;;;;;;;6.85;2.10;;;;;;;10.17;98.38;99644.25;4990167;28;20031;-46
2022/09/27 00:52:06;;;;;;;7.30;2.65;;;;;;;10.16;98.29;99648.72;4974048;28;20526;-46
2022/09/27 00:54:35;;;;;;;7.03;2.40;;;;;;;10.13;98.58;99642.81;4981739;28;20042;-47
2022/09/27 00:57:02;;;;;;;3.88;2.22;;;;;;;10.11;98.21;99632.28;4989780;28;20075;-47
2022/09/27 00:59:46;;;;;;;7.85;2.60;;;;;;;10.16;98.00;99627.47;5011607;28;20070;-47
2022/09/27 01:02:12;;;;;;;9.90;2.53;;;;;;;10.11;97.84;99634.13;4991364;28;20380;-47
2022/09/27 01:04:39;;;;;;;6.57;2.25;;;;;;;10.08;98.00;99629.03;4976830;28;20117;-48
2022/09/27 01:07:05;;;;;;;7.93;2.45;;;;;;;10.09;97.68;99628.06;4965274;28;20092;-50
2022/09/27 01:09:31;;;;;;;4.25;2.00;;;;;;;10.02;97.61;99620.59;4983888;28;20050;-47
2022/09/27 01:12:03;;;;;;;5.88;1.83;;;;;;;10.00;97.49;99635.84;4991132;28;20034;-47
2022/09/27 01:14:38;;;;;;;7.55;1.92;;;;;;;9.99;97.37;99631.47;4975218;28;20043;-51
2022/09/27 01:17:23;;;;;;;7.28;2.40;;;;;;;10.02;98.32;99635.69;4972471;28;20236;-47
2022/09/27 01:19:58;;;;;;;4.60;1.85;;;;;;;9.99;96.86;99631.47;5003214;28;20026;-49
2022/09/27 01:22:33;;;;;;;5.25;1.95;;;;;;;10.06;97.95;99637.16;4984579;28;20512;-50
2022/09/27 01:25:06;;;;;;;4.25;1.90;;;;;;;10.01;96.90;99644.63;4973570;28;20042;-48
2022/09/27 01:27:40;;;;;;;4.32;1.90;;;;;;;10.06;97.17;99642.47;4976812;28;20488;-47
2022/09/27 01:30:25;;;;;;;2.97;1.70;;;;;;;10.05;97.40;99643.41;4987859;28;20108;-47
2022/09/27 01:33:12;;;;;;;2.28;1.80;;;;;;;9.99;97.07;99641.25;4977462;28;20037;-48
2022/09/27 01:36:05;;;;;;;6.10;2.03;;;;;;;9.98;97.20;99647.53;4990522;28;20037;-48
2022/09/27 01:38:48;;;;;;;7.07;1.92;;;;;;;9.91;96.77;99644.53;4991412;28;20109;-48
2022/09/27 01:41:45;;;;;;;7.88;1.83;;;;;;;9.85;96.89;99660.09;4977319;28;20037;-49
2022/09/27 01:44:23;;;;;;;4.22;1.85;;;;;;;9.81;97.63;99651.53;4980810;28;20068;-47
2022/09/27 01:46:54;;;;;;;3.85;1.70;;;;;;;9.79;96.48;99645.50;4973625;28;20034;-47
2022/09/27 01:49:29;;;;;;;6.90;1.98;;;;;;;9.75;96.84;99657.34;4973379;28;20042;-47
2022/09/27 01:52:00;;;;;;;3.67;1.95;;;;;;;9.72;97.41;99658.41;4973080;28;20036;-47
2022/09/27 01:54:49;;;;;;;4.85;1.90;;;;;;;9.72;96.84;99658.41;4979191;28;20035;-47
2022/09/27 01:57:21;;;;;;;7.73;2.33;;;;;;;9.68;97.03;99667.59;4986130;28;20041;-49
2022/09/27 01:59:53;;;;;;;7.40;1.83;;;;;;;9.67;96.34;99670.34;4974784;28;20277;-48
2022/09/27 02:02:26;;;;;;;5.85;1.90;;;;;;;9.62;96.60;99664.56;4973116;28;20037;-51
2022/09/27 02:04:56;;;;;;;4.22;1.90;;;;;;;9.59;96.05;99657.69;4990035;28;20034;-49
2022/09/27 02:07:50;;;;;;;8.02;2.00;;;;;;;9.67;96.37;99662.41;4988040;28;20038;-49
2022/09/27 02:10:26;;;;;;;7.72;1.70;;;;;;;9.59;95.40;99657.69;4996487;28;20403;-48
2022/09/27 02:13:01;;;;;;;6.45;1.88;;;;;;;9.61;96.19;99666.38;4989881;28;20376;-48
2022/09/27 02:15:31;;;;;;;5.65;1.83;;;;;;;9.58;94.39;99668.44;4983860;28;20035;-48
2022/09/27 02:18:14;;;;;;;6.20;1.85;;;;;;;9.58;94.71;99671.09;4972127;28;20034;-48
2022/09/27 02:20:48;;;;;;;3.45;1.60;;;;;;;9.53;94.64;99668.81;4983533;28;20060;-49
2022/09/27 02:23:28;;;;;;;7.18;2.50;;;;;;;9.58;94.76;99669.25;4990162;28;20038;-48
2022/09/27 02:26:23;;;;;;;6.05;1.90;;;;;;;9.52;94.73;99667.09;4990254;28;20033;-49
2022/09/27 02:29:15;;;;;;;5.28;2.00;;;;;;;9.54;95.47;99659.88;4972734;28;20034;-47
2022/09/27 02:31:40;;;;;;;6.03;1.95;;;;;;;9.52;95.39;99662.63;4990627;28;20045;-48
2022/09/27 02:34:14;;;;;;;7.03;2.47;;;;;;;9.43;95.42;99652.72;4990586;28;20408;-47
2022/09/27 02:36:39;;;;;;;6.85;1.77;;;;;;;9.48;95.30;99666.50;4990142;28;20030;-47
2022/09/27 02:39:05;;;;;;;6.25;2.20;;;;;;;9.54;95.94;99681.94;5007445;28;20026;-47
2022/09/27 02:41:30;;;;;;;10.02;2.63;;;;;;;9.50;94.96;99680.50;5006811;28;20091;-48
2022/09/27 02:44:02;;;;;;;5.97;1.95;;;;;;;9.42;94.69;99674.09;4999252;28;20043;-50
2022/09/27 02:46:28;;;;;;;4.32;1.80;;;;;;;9.41;94.12;99678.56;4989021;28;20022;-48
2022/09/27 02:49:09;;;;;;;4.93;2.03;;;;;;;9.41;94.56;99675.91;4974997;28;20114;-47
2022/09/27 02:51:53;;;;;;;4.22;1.85;;;;;;;9.40;94.58;99671.53;4977764;28;20034;-48
2022/09/27 02:54:50;;;;;;;3.60;1.63;;;;;;;9.32;93.88;99669.50;4970819;28;20022;-48
2022/09/27 02:57:50;;;;;;;7.07;1.90;;;;;;;9.26;93.65;99674.41;4975254;28;20086;-49
2022/09/27 03:00:19;;;;;;;5.32;2.10;;;;;;;9.23;93.80;99674.63;4990635;28;20396;-48
2022/09/27 03:03:06;;;;;;;3.63;1.63;;;;;;;9.21;95.08;99672.13;5000015;28;20362;-47
2022/09/27 03:05:43;;;;;;;7.13;2.63;;;;;;;9.18;95.15;99667.06;4986908;28;20041;-47
2022/09/27 03:08:11;;;;;;;5.05;1.98;;;;;;;9.15;95.06;99674.38;4955168;28;20053;-49
2022/09/27 03:10:37;;;;;;;4.00;1.88;;;;;;;9.06;94.66;99666.19;5000000;28;20030;-47
2022/09/27 03:13:03;;;;;;;3.50;1.90;;;;;;;9.03;94.68;99663.75;4988837;28;20100;-47
2022/09/27 03:15:29;;;;;;;7.25;2.35;;;;;;;9.01;94.95;99670.13;4972134;28;20481;-47
2022/09/27 03:17:55;;;;;;;11.80;2.10;;;;;;;8.97;95.78;99661.56;5004412;28;20404;-46
2022/09/27 03:20:20;;;;;;;6.53;2.22;;;;;;;8.98;94.93;99662.41;4993284;28;20528;-46
2022/09/27 03:22:48;;;;;;;5.63;2.05;;;;;;;8.95;95.73;99670.59;4989300;28;20062;-49
2022/09/27 03:25:14;;;;;;;4.68;2.10;;;;;;;8.95;96.22;99670.59;4966899;28;20030;-47
2022/09/27 03:27:40;;;;;;;5.82;2.30;;;;;;;8.95;96.28;99671.44;4988997;28;20049;-47
2022/09/27 03:30:06;;;;;;;6.93;2.15;;;;;;;8.93;96.35;99676.00;4990239;28;20069;-46
2022/09/27 03:32:32;;;;;;;9.15;2.08;;;;;;;8.90;96.47;99675.41;4989311;28;20090;-47
2022/09/27 03:34:58;;;;;;;5.13;2.30;;;;;;;8.94;96.82;99672.41;4988785;28;20447;-46
2022/09/27 03:37:25;;;;;;;6.95;2.03;;;;;;;8.92;96.90;99676.97;4989232;28;20046;-47
2022/09/27 03:39:50;;;;;;;6.05;2.10;;;;;;;8.92;96.48;99681.44;4972602;28;20074;-47
2022/09/27 03:42:16;;;;;;;6.15;1.90;;;;;;;8.93;97.01;99676.00;4988756;28;20046;-48
2022/09/27 03:44:44;;;;;;;7.72;2.22;;;;;;;8.92;97.35;99684.09;4971417;28;20030;-46
2022/09/27 03:47:10;;;;;;;7.97;2.50;;;;;;;8.96;97.57;99696.16;4971641;28;20034;-47
2022/09/27 03:49:36;;;;;;;7.90;2.53;;;;;;;8.97;97.63;99693.41;4984490;28;20030;-47
2022/09/27 03:52:01;;;;;;;6.88;2.10;;;;;;;8.99;97.76;99696.75;4971695;28;20031;-50
2022/09/27 03:54:27;;;;;;;6.60;2.33;;;;;;;9.03;98.16;99700.00;4988749;28;20030;-49
2022/09/27 03:56:52;;;;;;;6.32;2.10;;;;;;;9.04;98.20;99710.53;4951920;28;20037;-47
2022/09/27 03:59:18;;;;;;;7.13;2.30;;;;;;;9.05;98.54;99711.38;4967927;28;20035;-46
2022/09/27 04:01:44;;;;;;;8.02;2.20;;;;;;;9.04;98.24;99713.19;4980761;28;20074;-47
2022/09/27 04:04:10;;;;;;;8.88;2.20;;;;;;;9.07;98.01;99723.56;4957874;28;20029;-48
2022/09/27 04:06:35;;;;;;;6.85;2.30;;;;;;;9.06;97.92;99726.34;4972787;28;20026;-47
2022/09/27 04:09:03;;;;;;;5.30;2.17;;;;;;;9.07;97.73;99734.16;4971508;28;20142;-47
2022/09/27 04:11:29;;;;;;;7.07;2.50;;;;;;;9.06;97.63;99724.53;4989239;28;20497;-48
2022/09/27 04:13:55;;;;;;;3.97;2.03;;;;;;;9.05;96.77;99722.81;4989091;28;20041;-47
2022/09/27 04:16:20;;;;;;;4.57;2.00;;;;;;;9.05;96.72;99729.94;4997651;28;20113;-46
2022/09/27 04:18:46;;;;;;;5.28;2.08;;;;;;;9.03;96.22;99723.88;4974604;28;20451;-48
2022/09/27 04:21:11;;;;;;;5.05;1.85;;;;;;;9.01;96.28;99716.06;4991864;28;20031;-47
2022/09/27 04:23:37;;;;;;;4.18;1.63;;;;;;;9.01;95.75;99705.44;4987018;28;20060;-47
2022/09/27 04:26:02;;;;;;;5.90;1.83;;;;;;;9.05;96.14;99711.38;4977417;28;20042;-47
2022/09/27 04:28:28;;;;;;;4.32;1.90;;;;;;;9.03;96.14;99697.38;4991626;28;20131;-48
2022/09/27 04:30:54;;;;;;;4.10;1.80;;;;;;;9.07;96.19;99701.50;4991824;28;20026;-46
2022/09/27 04:33:20;;;;;;;4.90;2.03;;;;;;;9.10;96.72;99695.97;4989111;28;20498;-49
2022/09/27 04:38:29;;;;;;;4.47;1.83;;;;;;;9.08;95.27;99700.53;4992896;28;20115;-48
2022/09/27 04:40:55;;;;;;;4.35;1.70;;;;;;;9.05;95.94;99693.63;4991996;28;20469;-47
2022/09/27 04:43:20;;;;;;;9.98;2.00;;;;;;;8.99;94.93;99687.97;4974963;28;20042;-49
2022/09/27 04:45:46;;;;;;;2.22;1.90;;;;;;;9.00;95.26;99689.63;4992849;28;20057;-48
2022/09/27 04:48:12;;;;;;;4.50;2.22;;;;;;;8.96;95.25;99701.44;4991655;28;20481;-48
2022/09/27 04:50:38;;;;;;;5.97;1.85;;;;;;;8.93;95.20;99683.97;4957781;28;20176;-49
2022/09/27 04:53:04;;;;;;;3.65;1.55;;;;;;;8.94;95.37;99698.94;4973622;28;20434;-48
2022/09/27 04:55:30;;;;;;;3.15;2.00;;;;;;;8.93;95.56;99704.34;4974455;28;20030;-48
2022/09/27 04:58:00;;;;;;;6.07;1.85;;;;;;;8.92;94.89;99703.50;4992338;28;20049;-47
2022/09/27 05:00:27;;;;;;;5.20;1.83;;;;;;;8.89;95.38;99705.53;4974126;28;20083;-49
2022/09/27 05:02:52;;;;;;;3.47;1.90;;;;;;;8.86;95.72;99719.84;4990698;28;20034;-48
2022/09/27 05:05:18;;;;;;;4.80;1.90;;;;;;;8.86;95.59;99717.22;4991315;28;20393;-49
2022/09/27 05:07:43;;;;;;;5.43;2.15;;;;;;;8.89;96.51;99732.03;4986984;28;20050;-49
2022/09/27 05:10:09;;;;;;;5.15;1.90;;;;;;;8.85;96.20;99731.41;4991043;28;20072;-51
2022/09/27 05:12:34;;;;;;;6.18;2.20;;;;;;;8.92;95.94;99739.78;4974819;28;20054;-47
2022/09/27 05:15:00;;;;;;;4.45;1.70;;;;;;;8.96;96.25;99730.63;4990950;28;20037;-50
2022/09/27 05:17:26;;;;;;;4.32;1.88;;;;;;;8.93;95.43;99733.50;4993036;28;20533;-48
2022/09/27 05:19:52;;;;;;;3.15;1.77;;;;;;;8.84;95.26;99730.56;4973173;28;20026;-49
2022/09/27 05:22:18;;;;;;;4.18;1.65;;;;;;;8.76;95.29;99719.66;4972067;28;20485;-48
2022/09/27 05:24:44;;;;;;;4.63;1.65;;;;;;;8.78;96.15;99738.13;4990975;28;20041;-46
2022/09/27 05:27:17;;;;;;;3.88;1.88;;;;;;;8.77;95.12;99733.81;4992172;28;20541;-47
2022/09/27 05:29:42;;;;;;;3.00;1.90;;;;;;;8.77;96.08;99726.69;4990096;28;20038;-48
2022/09/27 05:32:08;;;;;;;7.03;1.85;;;;;;;8.80;95.92;99726.47;4973853;28;20117;-48
2022/09/27 05:34:34;;;;;;;1.60;1.50;;;;;;;8.82;95.56;99728.97;4989603;28;20121;-47
2022/09/27 05:36:59;;;;;;;3.85;1.85;;;;;;;8.84;96.48;99730.56;4991302;28;20526;-46
2022/09/27 05:39:24;;;;;;;2.95;1.80;;;;;;;8.84;96.06;99727.91;4991152;28;20054;-46
2022/09/27 05:41:50;;;;;;;3.33;1.90;;;;;;;8.88;96.47;99731.19;5005752;28;20452;-46
2022/09/27 05:44:16;;;;;;;5.22;2.10;;;;;;;8.90;96.62;99733.72;4991613;28;20045;-48
2022/09/27 05:46:45;;;;;;;3.95;2.03;;;;;;;8.83;95.95;99728.88;4990923;28;20484;-47
2022/09/27 05:49:13;;;;;;;4.03;2.17;;;;;;;8.90;96.22;99737.22;4991549;28;20064;-46
2022/09/27 05:51:38;;;;;;;5.88;2.10;;;;;;;8.92;95.88;99735.31;4976066;28;20048;-47
2022/09/27 05:54:04;;;;;;;4.25;1.80;;;;;;;8.94;95.81;99738.72;4989242;28;20133;-48
2022/09/27 05:56:29;;;;;;;4.50;1.90;;;;;;;8.97;95.89;99741.13;4967977;28;20042;-47
2022/09/27 05:58:56;;;;;;;3.90;1.85;;;;;;;8.98;95.70;99737.50;4989908;28;20030;-47
2022/09/27 06:01:25;;;;;;;5.30;2.05;;;;;;;9.02;95.95;99748.72;4990411;28;20027;-46
2022/09/27 06:03:52;;;;;;;3.22;1.75;;;;;;;9.03;95.74;99750.41;4955644;28;20038;-47
2022/09/27 06:06:18;;;;;;;5.00;1.70;;;;;;;9.00;95.28;99743.56;4975466;28;20040;-47
2022/09/27 06:08:44;;;;;;;3.38;1.45;;;;;;;9.00;94.69;99747.97;4989219;28;20039;-46
2022/09/27 06:11:11;;;;;;;3.92;1.70;;;;;;;8.91;95.54;99741.56;4990121;28;20500;-46
2022/09/27 06:13:38;;;;;;;2.83;1.83;;;;;;;8.88;94.90;99749.75;4973248;28;20069;-46
2022/09/27 06:16:05;;;;;;;2.13;1.60;;;;;;;8.81;94.96;99743.22;4963297;28;20080;-47
2022/09/27 06:18:33;;;;;;;2.75;1.77;;;;;;;8.80;94.98;99745.00;4990103;28;20023;-47
2022/09/27 06:21:02;;;;;;;3.00;1.65;;;;;;;8.78;94.90;99738.13;4990013;28;20064;-48
2022/09/27 06:23:31;;;;;;;4.68;2.10;;;;;;;8.79;94.65;99745.13;4989853;28;20119;-47
2022/09/27 06:26:01;;;;;;;2.45;1.80;;;;;;;8.74;94.23;99742.81;4990208;28;20506;-46
2022/09/27 06:28:26;;;;;;;2.92;1.90;;;;;;;8.64;94.53;99736.47;4998430;28;20029;-47
2022/09/27 06:30:51;;;;;;;3.20;2.20;;;;;;;8.66;95.39;99744.34;4991611;28;20396;-46
2022/09/27 06:33:19;;;;;;;7.13;2.30;;;;;;;8.59;96.06;99736.00;4997930;28;20113;-46
2022/09/27 06:35:46;;;;;;;4.70;2.22;;;;;;;8.61;95.74;99742.00;5009801;28;20034;-48
2022/09/27 06:38:16;;;;;;;7.63;2.88;;;;;;;8.61;96.32;99745.50;5001860;28;20050;-46
2022/09/27 06:40:45;;;;;;;;;;;;;;;8.73;95.58;99750.88;4995394;28;20014;-46
2022/09/27 06:43:13;;;;;;;6.03;2.58;;;;;;;8.58;95.48;99753.66;4989329;28;19920;-47
2022/09/27 06:45:39;;;;;;;4.78;2.55;;;;;;;8.55;95.59;99756.53;4989013;28;20163;-49
2022/09/27 06:48:06;;;;;;;3.25;2.72;;;;;;;8.56;95.89;99749.44;4993730;28;20125;-45
2022/09/27 06:50:36;;;;;;;3.97;3.03;;;;;;;8.55;95.81;99748.59;4961636;28;20034;-47
2022/09/27 06:53:07;;;;;;;6.45;2.88;;;;;;;8.61;96.52;99747.31;4990412;28;20460;-45
2022/09/27 06:55:32;;;;;;;4.47;3.10;;;;;;;8.63;97.32;99746.25;4989522;28;20160;-47
2022/09/27 07:00:48;;;;;;;5.32;3.17;;;;;;;8.66;97.08;99745.19;4988722;28;20057;-47
2022/09/27 07:03:16;;;;;;;3.50;3.20;;;;;;;8.70;96.96;99753.75;4989194;28;20397;-47
2022/09/27 07:05:41;;;;;;;3.65;3.13;;;;;;;8.74;97.10;99747.28;4953067;28;20474;-47
2022/09/27 07:08:13;;;;;;;3.72;2.75;;;;;;;8.77;97.30;99753.19;5003130;28;20099;-47
2022/09/27 07:10:39;;;;;;;5.45;2.63;;;;;;;8.81;96.72;99746.69;4995779;28;20053;-50
2022/09/27 07:13:07;;;;;;;5.22;2.97;;;;;;;8.84;96.75;99749.13;4987726;28;20042;-46
2022/09/27 07:15:36;;;;;;;4.78;2.80;;;;;;;8.87;97.19;99758.66;4983434;28;20034;-46
2022/09/27 07:18:04;;;;;;;4.30;2.92;;;;;;;8.89;96.42;99751.44;4987625;28;20030;-47
2022/09/27 07:20:31;;;;;;;4.88;2.78;;;;;;;8.92;97.58;99756.53;4983538;28;20496;-47
2022/09/27 07:22:57;;;;;;;2.80;2.53;;;;;;;9.00;97.63;99754.16;4998209;28;20476;-48
2022/09/27 07:25:24;;;;;;;4.60;2.50;;;;;;;9.00;97.30;99754.16;4988372;28;20030;-47
2022/09/27 07:27:51;;;;;;;4.50;3.10;;;;;;;9.03;96.79;99759.22;4989232;28;20109;-45
2022/09/27 07:30:17;;;;;;;3.80;3.40;;;;;;;9.01;96.95;99765.59;4970296;28;20049;-48
2022/09/27 07:32:44;;;;;;;4.30;3.60;;;;;;;9.06;97.25;99761.66;4987786;28;20030;-46
2022/09/27 07:35:12;;;;;;;3.90;3.17;;;;;;;9.12;97.63;99764.78;4989117;28;20029;-47
2022/09/27 07:37:40;;;;;;;5.18;3.40;;;;;;;9.09;96.86;99760.59;4967276;28;20163;-46
2022/09/27 07:40:08;;;;;;;6.10;3.53;;;;;;;9.11;96.80;99769.25;4987197;28;20120;-47
2022/09/27 07:42:42;;;;;;;7.00;4.07;;;;;;;9.16;98.71;99769.75;4981566;28;20026;-46
2022/09/27 07:45:10;;;;;;;4.45;3.70;;;;;;;9.12;98.10;99764.78;4972395;28;20491;-47
2022/09/27 07:47:37;;;;;;;5.88;4.85;;;;;;;9.10;97.20;99770.22;4986364;28;20045;-47
2022/09/27 07:50:07;;;;;;;5.28;4.40;;;;;;;9.08;97.12;99765.03;4989236;28;20057;-45
2022/09/27 07:52:43;;;;;;;4.88;4.45;;;;;;;9.08;97.83;99769.47;4987971;28;20117;-46
2022/09/27 07:55:10;;;;;;;4.95;4.28;;;;;;;9.06;97.81;99772.25;4990715;28;20025;-48
2022/09/27 07:57:36;;;;;;;4.80;4.40;;;;;;;9.04;97.32;99774.19;4995068;28;20022;-46
2022/09/27 08:00:06;;;;;;;9.02;5.05;;;;;;;9.04;98.62;99784.78;4987649;28;20019;-45
2022/09/27 08:02:32;;;;;;;8.23;5.18;;;;;;;9.08;99.02;99780.09;4985104;28;20022;-47
2022/09/27 08:05:00;;;;;;;6.50;5.60;;;;;;;9.14;97.90;99789.41;4988457;28;20042;-45
2022/09/27 08:07:30;;;;;;;6.22;5.57;;;;;;;9.11;98.08;99787.81;4972986;28;20022;-46
2022/09/27 08:09:56;;;;;;;5.60;4.82;;;;;;;9.14;98.79;99789.41;4988440;28;20045;-46
2022/09/27 08:12:21;;;;;;;7.22;5.80;;;;;;;9.15;98.71;99796.38;4988879;28;20033;-47
2022/09/27 08:14:48;;;;;;;5.82;5.22;;;;;;;9.18;98.72;99788.25;4987728;28;20038;-47
2022/09/27 08:17:16;;;;;;;5.30;4.80;;;;;;;9.19;98.30;99796.06;5002565;28;20494;-46
2022/09/27 08:19:43;;;;;;;6.82;5.60;;;;;;;9.22;97.83;99798.50;4969159;28;20034;-48
2022/09/27 08:22:09;;;;;;;12.43;6.22;;;;;;;9.16;98.59;99796.28;4949732;28;20035;-48
2022/09/27 08:24:34;;;;;;;7.18;6.07;;;;;;;9.16;99.23;99798.94;4983751;28;20032;-47
2022/09/27 08:27:01;;;;;;;8.15;6.35;;;;;;;9.18;97.95;99789.06;4986862;28;20080;-46
2022/09/27 08:29:27;;;;;;;8.77;6.18;;;;;;;9.18;98.26;99797.03;4989679;28;20026;-48
2022/09/27 08:31:53;;;;;;;8.27;7.30;;;;;;;9.22;98.75;99805.59;4991243;28;20125;-46
2022/09/27 08:34:19;;;;;;;8.98;7.43;;;;;;;9.19;98.53;99789.91;4963560;28;20113;-47
2022/09/27 08:36:47;;;;;;;11.00;8.18;;;;;;;9.22;98.01;99792.34;4989071;28;20037;-47
2022/09/27 08:39:13;;;;;;;9.15;8.25;;;;;;;9.23;99.08;99794.88;4986294;28;20022;-47
2022/09/27 08:41:46;;;;;;;10.68;9.05;;;;;;;9.29;99.14;99791.78;4988803;28;20030;-47
2022/09/27 08:44:14;;;;;;;11.35;9.18;;;;;;;9.33;98.73;99787.09;4988013;28;20385;-47
2022/09/27 08:46:59;;;;;;;11.93;10.13;;;;;;;9.36;98.64;99781.53;4986227;28;20447;-46
2022/09/27 08:49:55;;;;;;;12.95;10.75;;;;;;;9.39;98.66;99789.28;4992460;28;20030;-49
2022/09/27 08:52:41;;;;;;;12.98;10.30;;;;;;;9.40;98.21;99783.00;4987316;28;20100;-47
2022/09/27 08:55:36;;;;;;;13.85;11.15;;;;;;;9.41;98.57;99797.97;4971232;28;20019;-46
2022/09/27 08:58:10;;;;;;;12.40;10.38;;;;;;;9.45;98.13;99791.47;4989108;28;20030;-47
2022/09/27 09:00:36;;;;;;;15.20;11.18;;;;;;;9.50;98.08;99788.44;4987461;28;20396;-47
2022/09/27 09:03:02;;;;;;;14.90;12.48;;;;;;;9.46;98.53;99785.19;4987398;28;20049;-46
2022/09/27 09:05:32;;;;;;;16.85;12.35;;;;;;;9.54;98.82;99792.56;4938510;28;20370;-48
2022/09/27 09:08:22;;;;;;;13.18;11.77;;;;;;;9.62;98.71;99789.31;4981391;28;20054;-46
2022/09/27 09:13:49;;;;;;;15.35;12.18;;;;;;;9.68;98.18;99796.84;4991108;28;20563;-47
2022/09/27 09:16:37;;;;;;;12.63;11.18;;;;;;;9.68;98.07;99791.53;4991053;28;20035;-46
2022/09/27 09:19:20;;;;;;;13.10;11.13;;;;;;;9.51;97.44;99771.56;4991225;28;20330;-47
2022/09/27 09:21:51;;;;;;;14.10;12.35;;;;;;;9.66;98.48;99809.38;4972488;28;20026;-47
2022/09/27 09:24:40;;;;;;;16.20;13.30;;;;;;;9.73;98.85;99799.97;4989526;28;20376;-45
2022/09/27 09:27:31;;;;;;;17.27;13.20;;;;;;;9.70;98.53;99806.34;4991601;28;20095;-48
2022/09/27 09:30:21;;;;;;;17.10;14.07;;;;;;;9.75;98.03;99809.53;4991281;28;20057;-45
2022/09/27 09:33:24;;;;;;;23.85;14.48;;;;;;;9.78;98.37;99814.59;4992945;28;20069;-46
2022/09/27 09:36:12;;;;;;;16.40;14.85;;;;;;;9.76;98.05;99813.88;4989934;28;20052;-46
2022/09/27 09:38:56;;;;;;;18.15;15.50;;;;;;;9.80;98.86;99811.00;4988208;28;20037;-45
2022/09/27 09:41:31;;;;;;;21.48;16.90;;;;;;;9.84;99.41;99807.13;4987218;28;20113;-46
2022/09/27 09:44:09;;;;;;;18.23;16.25;;;;;;;9.88;99.13;99811.22;4991149;28;20022;-45
2022/09/27 09:46:46;;;;;;;16.98;15.20;;;;;;;9.89;99.14;99812.94;4992531;28;20126;-46
2022/09/27 09:49:21;;;;;;;16.50;14.80;;;;;;;9.78;99.27;99809.28;4973455;28;20485;-46
2022/09/27 09:51:51;;;;;;;18.25;16.05;;;;;;;9.85;99.24;99822.09;4987269;28;20485;-47
2022/09/27 09:54:32;;;;;;;17.25;14.27;;;;;;;9.82;99.00;99817.84;4977155;28;20026;-46
2022/09/27 09:57:15;;;;;;;14.85;13.38;;;;;;;9.86;99.27;99814.03;4977076;28;20027;-45
2022/09/27 09:59:53;;;;;;;14.85;12.38;;;;;;;9.94;98.98;99822.25;5010549;28;20385;-47
2022/09/27 10:02:22;;;;;;;11.68;10.00;;;;;;;9.92;97.95;99818.84;4998299;28;20026;-48
2022/09/27 10:04:48;;;;;;;10.18;8.48;;;;;;;9.90;96.94;99815.47;4983512;28;20109;-47
2022/09/27 10:07:20;;;;;;;8.63;7.22;;;;;;;9.87;96.73;99817.50;4986424;28;20122;-46
2022/09/27 10:09:48;;;;;;;8.68;6.97;;;;;;;9.83;97.00;99819.56;4971170;28;20539;-47
2022/09/27 10:12:13;;;;;;;11.07;7.47;;;;;;;9.88;98.08;99813.88;4975792;28;20121;-46
2022/09/27 10:14:40;;;;;;;8.75;5.25;;;;;;;9.81;96.79;99818.81;4990096;28;20034;-46
2022/09/27 10:17:13;;;;;;;5.47;4.00;;;;;;;9.72;96.20;99825.69;4999527;28;20125;-47
2022/09/27 10:19:41;;;;;;;5.38;3.80;;;;;;;9.69;97.18;99820.63;4972975;28;20018;-48
2022/09/27 10:22:17;;;;;;;5.53;3.60;;;;;;;9.68;97.03;99816.28;4972635;28;20057;-47
2022/09/27 10:25:01;;;;;;;3.78;2.60;;;;;;;9.61;95.69;99819.50;4989266;28;20338;-45
2022/09/27 10:27:37;;;;;;;2.63;2.28;;;;;;;9.44;93.41;99826.06;4973272;28;20031;-47
2022/09/27 10:30:03;;;;;;;3.60;2.25;;;;;;;9.42;94.20;99828.84;4972900;28;20048;-46
2022/09/27 10:32:35;;;;;;;3.22;1.98;;;;;;;9.40;95.90;99820.16;4989342;28;20065;-46
2022/09/27 10:35:29;;;;;;;3.10;2.20;;;;;;;9.55;96.02;99831.41;4981408;28;20469;-46
2022/09/27 10:38:12;;;;;;;2.17;1.98;;;;;;;9.50;94.91;99831.78;4966152;28;20095;-47
2022/09/27 10:40:37;;;;;;;3.13;2.13;;;;;;;9.46;94.99;99829.47;4989183;28;20040;-47
2022/09/27 10:43:29;;;;;;;1.90;1.60;;;;;;;9.51;93.04;99833.47;5002631;28;20034;-48
2022/09/27 10:46:16;;;;;;;2.65;1.85;;;;;;;9.53;93.54;99836.03;4989445;28;20035;-47
2022/09/27 10:48:41;;;;;;;2.58;1.83;;;;;;;9.55;93.69;99831.41;4985038;28;20194;-47
2022/09/27 10:51:24;;;;;;;2.42;1.58;;;;;;;9.55;93.43;99831.41;4988649;28;20026;-46
2022/09/27 10:53:50;;;;;;;2.60;1.98;;;;;;;9.58;94.03;99825.88;4992990;28;20401;-46
2022/09/27 10:56:23;;;;;;;3.20;1.90;;;;;;;9.60;94.97;99839.06;4972237;28;20026;-46
2022/09/27 10:58:49;;;;;;;2.88;1.98;;;;;;;9.63;95.53;99833.50;4972213;28;20105;-47
2022/09/27 11:01:14;;;;;;;4.47;2.38;;;;;;;9.64;95.47;99828.06;4971729;28;20033;-46
2022/09/27 11:04:17;;;;;;;4.88;2.22;;;;;;;9.73;94.45;99829.19;4980788;28;20045;-46
2022/09/27 11:06:43;;;;;;;2.65;2.10;;;;;;;9.62;94.06;99831.81;4980395;28;20069;-46
2022/09/27 11:09:28;;;;;;;3.85;2.15;;;;;;;9.71;95.15;99824.00;4952632;28;20054;-50
2022/09/27 11:12:19;;;;;;;2.70;1.80;;;;;;;9.76;93.88;99820.97;4996725;28;20073;-47
2022/09/27 11:14:54;;;;;;;2.25;1.60;;;;;;;9.75;92.60;99819.31;4989669;28;20037;-47
2022/09/27 11:17:32;;;;;;;2.13;1.67;;;;;;;9.81;92.07;99816.16;4988047;28;20066;-46
2022/09/27 11:20:22;;;;;;;1.75;1.60;;;;;;;9.85;91.88;99804.34;4988201;28;20022;-48
2022/09/27 11:23:12;;;;;;;1.80;1.65;;;;;;;9.98;92.40;99810.41;4977933;28;20144;-46
2022/09/27 11:26:07;;;;;;;1.88;1.50;;;;;;;10.17;92.36;99796.53;4978856;28;20030;-47
2022/09/27 11:28:45;;;;;;;3.97;1.67;;;;;;;10.38;91.55;99801.16;4990210;28;20026;-47
2022/09/27 11:31:48;;;;;;;2.97;1.35;;;;;;;10.56;91.80;99805.03;4987498;28;20045;-47
2022/09/27 11:34:30;;;;;;;1.98;1.40;;;;;;;10.72;91.21;99799.31;4974653;28;20030;-48
2022/09/27 11:37:29;;;;;;;2.08;1.50;;;;;;;10.86;89.97;99782.25;4972392;28;20054;-46
2022/09/27 11:40:14;;;;;;;2.28;1.60;;;;;;;11.10;90.94;99795.34;4970118;28;20035;-46
2022/09/27 11:42:45;;;;;;;2.45;1.35;;;;;;;11.29;87.99;99800.00;4970435;28;20391;-47
2022/09/27 11:45:14;;;;;;;2.17;1.60;;;;;;;11.50;88.11;99803.56;4985004;28;20026;-47
2022/09/27 11:47:59;;;;;;;1.55;1.45;;;;;;;11.87;86.28;99803.13;4972752;28;20033;-47
2022/09/27 11:50:59;;;;;;;4.13;1.80;;;;;;;12.23;85.37;99796.44;4988995;28;20033;-48
2022/09/27 11:53:33;;;;;;;1.80;1.67;;;;;;;12.41;82.99;99799.34;4992131;28;20606;-46
2022/09/27 11:56:04;;;;;;;4.50;1.55;;;;;;;12.50;81.46;99808.34;4970003;28;20031;-47
2022/09/27 11:58:36;;;;;;;4.35;1.55;;;;;;;12.63;81.32;99794.78;4952596;28;20031;-47
2022/09/27 12:01:18;;;;;;;2.22;1.80;;;;;;;12.67;80.33;99799.69;4953100;28;20027;-47
2022/09/27 12:04:21;;;;;;;3.05;1.80;;;;;;;12.77;81.87;99797.06;4989197;28;20577;-47
2022/09/27 12:07:09;;;;;;;4.28;1.90;;;;;;;13.03;80.01;99781.38;4986523;28;20073;-48
2022/09/27 12:09:42;;;;;;;1.67;1.35;;;;;;;13.34;78.45;99791.97;4955231;28;20043;-46